Pacayas, Costa Rica

5:43 PM CST on August 28, 2015 (GMT -0600)
Villas San Marino #62 | | Change Station
CLOSE
Current Station
Personal Weather Station
Location: Tres Rios, CARTAGO
Elevation: 4131 ft
Nearby Weather Stations

Elev 4131 ft 9.90 °N, 84.01 °W | Updated 13 minutes ago

Partly Cloudy
Partly Cloudy
77.0 °F
Feels Like 79 °F
N
3.1
Wind Variable Wind from NW
Gusts 4.5 mph

Today
High -- | Low -- °F
--% Chance of Precip.
Yesterday
High -- | Low -- °F
Precip. -- in
5:27 AM 5:47 PM
Waxing Gibbous, 99% visible
Pressure 29.92 in
Visibility 6.2 miles
Clouds Few 2000 ft
Few 4500 ft
Heat Index 79 °F
Dew Point 60 °F
Humidity 55%
Rainfall 0.00 in
Snow Depth Not available.
UV 1 out of 12
Pollen Not available.
Air Quality Not available.
Flu Activity Not available.
METAR MRPV 282300Z 27005KT 9999 FEW020TCU FEW045 25/20 A2992 NOSIG
Pressure 29.92 in
Visibility 6.2 miles
Clouds Few 2000 ft
Few 4500 ft
Heat Index 79 °F
Dew Point 60 °F
Humidity 55%
Rainfall 0.00 in
Snow Depth Not available.
UV 1 out of 12
Pollen Not available.
Air Quality Not available.
Flu Activity Not available.
METAR MRPV 282300Z 27005KT 9999 FEW020TCU FEW045 25/20 A2992 NOSIG

10-Day Weather Forecast

×

Almanac

Astronomy

Aug. 28, 2015 Rise Set
Actual Time
Civil Twilight
Nautical Twilight
Astronomical Twilight
Moon
Length of Visible Light
Length of Day
Tomorrow will be .
, % of the Moon is Illuminated

Today's Extremes

Country Highs Country Lows

Community

WunderPhotos

Upload Photos

1,850,532 photos uploaded!

WunderBlogs® & News

Nearby

Air Quality

  Air Quality AQ Index Pollutant
Not available.

Snow Depth

Station Depth Elevation

Earthquake Activity

City Distance Mag. Time & Date
Minimum magnitude displayed is 2.5.

Coastal Water Temperatures

Place Temperature

Stations

Nearby Weather Stations

Station Location Temp. Windchill Dew Point Humidity Wind Precip. Elev Updated Type